createdAt,value
2018-12-24T00:01:05.226Z,10.46
2018-12-24T00:03:33.373Z,10.36
2018-12-24T00:06:01.638Z,10.22
2018-12-24T00:08:29.822Z,10.12
2018-12-24T00:10:57.990Z,9.91
2018-12-24T00:13:26.131Z,9.74
2018-12-24T00:15:54.256Z,9.66
2018-12-24T00:18:22.430Z,9.63
2018-12-24T00:20:50.583Z,9.57
2018-12-24T00:23:18.778Z,9.44
2018-12-24T00:25:46.999Z,9.41
2018-12-24T00:28:15.105Z,9.36
2018-12-24T00:33:51.956Z,9.19
2018-12-24T00:36:20.661Z,9.17
2018-12-24T00:38:49.360Z,9.08
2018-12-24T00:41:18.048Z,9.27
2018-12-24T00:43:46.799Z,9.10
2018-12-24T00:46:15.493Z,9.08
2018-12-24T00:51:19.150Z,9.01
2018-12-24T00:54:07.169Z,8.86
2018-12-24T00:56:35.856Z,8.88
2018-12-24T00:59:23.948Z,8.83
2018-12-24T01:01:52.642Z,8.64
2018-12-24T01:04:40.552Z,8.60
2018-12-24T01:07:09.233Z,8.48
2018-12-24T01:12:32.541Z,8.22
2018-12-24T01:15:01.247Z,8.07
2018-12-24T01:17:29.923Z,8.10
2018-12-24T01:19:58.605Z,8.21
2018-12-24T01:22:46.490Z,7.98
2018-12-24T01:25:15.508Z,7.86
2018-12-24T01:30:18.750Z,7.60
2018-12-24T01:32:47.453Z,7.58
2018-12-24T01:35:16.151Z,7.62
2018-12-24T01:38:04.790Z,7.42
2018-12-24T01:40:33.481Z,7.31
2018-12-24T01:43:02.272Z,7.34
2018-12-24T01:45:30.957Z,7.17
2018-12-24T01:47:59.689Z,7.04
2018-12-24T01:50:28.467Z,7.03
2018-12-24T01:52:57.148Z,7.11
2018-12-24T01:55:26.263Z,7.08
2018-12-24T01:57:54.992Z,7.03
2018-12-24T02:00:24.053Z,6.89
2018-12-24T02:02:53.078Z,6.85
2018-12-24T02:05:21.771Z,6.88
2018-12-24T02:07:50.454Z,6.86
2018-12-24T02:10:19.146Z,6.86
2018-12-24T02:12:48.002Z,6.70
2018-12-24T02:15:16.987Z,6.60
2018-12-24T02:17:46.296Z,6.55
2018-12-24T02:20:14.965Z,6.47
2018-12-24T02:22:43.648Z,6.37
2018-12-24T02:25:12.369Z,6.37
2018-12-24T02:27:41.363Z,6.38
2018-12-24T02:30:10.395Z,6.24
2018-12-24T02:32:39.167Z,6.23
2018-12-24T02:35:07.922Z,6.18
2018-12-24T02:37:36.635Z,6.18
2018-12-24T02:40:05.558Z,6.15
2018-12-24T02:42:34.279Z,6.30
2018-12-24T02:45:03.032Z,6.24
2018-12-24T02:47:31.732Z,6.20
2018-12-24T02:50:00.482Z,6.14
2018-12-24T02:52:29.943Z,6.03
2018-12-24T02:54:59.008Z,6.02
2018-12-24T02:57:27.691Z,5.89
2018-12-24T02:59:56.384Z,5.88
2018-12-24T03:02:25.061Z,5.96
2018-12-24T03:04:54.271Z,5.92
2018-12-24T03:07:22.943Z,6.02
2018-12-24T03:09:51.627Z,6.01
2018-12-24T03:12:20.405Z,6.02
2018-12-24T03:14:49.088Z,5.96
2018-12-24T03:17:18.471Z,6.04
2018-12-24T03:19:47.164Z,5.93
2018-12-24T03:22:16.124Z,5.84
2018-12-24T03:24:44.886Z,5.94
2018-12-24T03:27:13.640Z,5.91
2018-12-24T03:29:42.689Z,5.87
2018-12-24T03:32:11.442Z,5.81
2018-12-24T03:34:40.459Z,5.66
2018-12-24T03:37:09.146Z,5.60
2018-12-24T03:39:37.849Z,5.58
2018-12-24T03:42:07.205Z,5.53
2018-12-24T03:44:35.884Z,5.54
2018-12-24T03:47:04.580Z,5.60
2018-12-24T03:49:33.248Z,5.55
2018-12-24T03:52:01.930Z,5.52
2018-12-24T03:54:31.573Z,5.45
2018-12-24T03:57:00.256Z,5.38
2018-12-24T03:59:28.937Z,5.50
2018-12-24T04:01:57.627Z,5.55
2018-12-24T04:04:26.348Z,5.50
2018-12-24T04:06:55.412Z,5.57
2018-12-24T04:09:24.084Z,5.67
2018-12-24T04:11:52.783Z,5.63
2018-12-24T04:14:21.795Z,5.67
2018-12-24T04:16:50.477Z,5.82
2018-12-24T04:19:19.458Z,5.79
2018-12-24T04:21:48.144Z,5.87
2018-12-24T04:24:17.137Z,5.85
2018-12-24T04:26:46.132Z,5.82
2018-12-24T04:29:14.879Z,5.68
2018-12-24T04:31:43.914Z,5.52
2018-12-24T04:34:12.896Z,5.49
2018-12-24T04:36:41.568Z,5.49
2018-12-24T04:39:10.248Z,5.46
2018-12-24T04:41:38.923Z,5.45
2018-12-24T04:44:08.055Z,5.38
2018-12-24T04:46:37.126Z,5.53
2018-12-24T04:49:05.883Z,5.47
2018-12-24T04:51:35.261Z,5.57
2018-12-24T04:54:04.057Z,5.52
2018-12-24T04:56:33.009Z,5.45
2018-12-24T04:59:01.699Z,5.52
2018-12-24T05:01:30.389Z,5.48
2018-12-24T05:03:59.157Z,5.57
2018-12-24T05:06:27.851Z,5.61
2018-12-24T05:08:56.849Z,5.58
2018-12-24T05:11:25.843Z,5.67
2018-12-24T05:13:54.569Z,5.72
2018-12-24T05:16:23.538Z,5.86
2018-12-24T05:18:52.533Z,5.91
2018-12-24T05:21:21.601Z,5.91
2018-12-24T05:23:50.292Z,6.11
2018-12-24T05:26:19.055Z,5.98
2018-12-24T05:28:48.093Z,5.84
2018-12-24T05:31:16.784Z,5.73
2018-12-24T05:33:45.881Z,5.77
2018-12-24T05:36:14.699Z,5.55
2018-12-24T05:38:43.393Z,5.70
2018-12-24T05:41:12.094Z,5.71
2018-12-24T05:43:49.273Z,5.73
2018-12-24T05:46:11.523Z,5.69
2018-12-24T05:48:40.207Z,5.57
2018-12-24T05:51:09.207Z,5.54
2018-12-24T05:53:37.894Z,5.53
2018-12-24T05:56:06.710Z,5.57
2018-12-24T05:58:36.183Z,5.57
2018-12-24T06:01:04.940Z,5.63
2018-12-24T06:03:33.634Z,5.80
2018-12-24T06:06:02.407Z,5.73
2018-12-24T06:08:31.239Z,5.70
2018-12-24T06:11:00.225Z,5.74
2018-12-24T06:13:28.945Z,5.86
2018-12-24T06:15:57.709Z,5.86
2018-12-24T06:18:27.097Z,5.72
2018-12-24T06:20:55.787Z,5.76
2018-12-24T06:23:24.543Z,5.67
2018-12-24T06:25:53.381Z,5.69
2018-12-24T06:28:22.064Z,5.84
2018-12-24T06:30:50.767Z,5.85
2018-12-24T06:33:19.456Z,5.84
2018-12-24T06:35:48.717Z,5.76
2018-12-24T06:38:17.403Z,5.80
2018-12-24T06:40:46.169Z,5.77
2018-12-24T06:43:14.849Z,5.73
2018-12-24T06:45:43.531Z,5.69
2018-12-24T06:48:12.650Z,5.62
2018-12-24T06:50:41.393Z,5.54
2018-12-24T06:53:10.248Z,5.48
2018-12-24T06:55:38.958Z,5.43
2018-12-24T06:58:07.745Z,5.43
2018-12-24T07:00:36.892Z,5.33
2018-12-24T07:03:05.983Z,5.30
2018-12-24T07:05:34.663Z,5.29
2018-12-24T07:08:03.706Z,5.28
2018-12-24T07:10:32.997Z,5.29
2018-12-24T07:13:01.680Z,5.42
2018-12-24T07:15:30.468Z,5.57
2018-12-24T07:17:59.441Z,5.62
2018-12-24T07:20:28.154Z,5.60
2018-12-24T07:22:56.876Z,5.63
2018-12-24T07:25:25.541Z,5.52
2018-12-24T07:27:54.229Z,5.39
2018-12-24T07:30:22.925Z,5.25
2018-12-24T07:32:51.661Z,5.21
2018-12-24T07:35:20.648Z,5.27
2018-12-24T07:37:49.772Z,5.09
2018-12-24T07:40:18.455Z,4.96
2018-12-24T07:42:47.623Z,4.92
2018-12-24T07:45:16.305Z,4.80
2018-12-24T07:47:44.995Z,4.67
2018-12-24T07:50:13.777Z,4.48
2018-12-24T07:52:42.453Z,4.64
2018-12-24T07:55:12.173Z,4.58
2018-12-24T07:57:40.851Z,4.61
2018-12-24T08:00:09.602Z,4.63
2018-12-24T08:02:38.381Z,4.67
2018-12-24T08:05:07.142Z,4.73
2018-12-24T08:07:35.821Z,4.89
2018-12-24T08:10:04.769Z,4.86
2018-12-24T08:12:33.548Z,5.03
2018-12-24T08:15:02.215Z,5.18
2018-12-24T08:17:31.009Z,5.17
2018-12-24T08:19:59.675Z,5.08
2018-12-24T08:22:28.344Z,4.90
2018-12-24T08:24:57.037Z,4.70
2018-12-24T08:27:25.724Z,4.66
2018-12-24T08:29:54.420Z,4.67
2018-12-24T08:32:23.113Z,4.73
2018-12-24T08:34:52.115Z,4.67
2018-12-24T08:37:40.256Z,4.75
2018-12-24T08:40:28.254Z,4.84
2018-12-24T08:42:57.054Z,4.78
2018-12-24T08:45:45.275Z,4.59
2018-12-24T08:48:13.961Z,4.52
2018-12-24T08:51:22.579Z,4.74
2018-12-24T08:57:19.012Z,5.27
2018-12-24T08:59:47.944Z,5.26
2018-12-24T09:05:29.406Z,5.32
2018-12-24T09:10:33.043Z,5.19
2018-12-24T09:16:14.287Z,5.01
2018-12-24T09:18:43.082Z,4.93
2018-12-24T09:21:31.162Z,4.92
2018-12-24T09:24:00.314Z,4.57
2018-12-24T09:26:48.704Z,4.41
2018-12-24T09:29:36.693Z,4.25
2018-12-24T09:32:05.619Z,4.36
2018-12-24T09:34:34.345Z,4.58
2018-12-24T09:37:03.059Z,4.78
2018-12-24T09:39:31.752Z,4.94
2018-12-24T09:42:00.551Z,5.11
2018-12-24T09:44:48.299Z,5.27
2018-12-24T09:49:51.996Z,5.52
2018-12-24T09:53:00.756Z,5.46
2018-12-24T09:55:29.464Z,5.37
2018-12-24T09:57:58.269Z,5.46
2018-12-24T10:06:22.061Z,6.05
2018-12-24T10:08:50.748Z,6.03
2018-12-24T10:11:38.781Z,6.01
2018-12-24T10:14:26.668Z,6.15
2018-12-24T10:19:29.203Z,6.39
2018-12-24T10:21:57.908Z,6.62
2018-12-24T10:24:26.602Z,6.82
2018-12-24T10:26:55.553Z,7.02
2018-12-24T10:31:58.236Z,7.33
2018-12-24T10:34:46.255Z,7.77
2018-12-24T10:37:14.944Z,8.18
2018-12-24T10:39:43.665Z,8.15
2018-12-24T10:42:12.350Z,8.06
2018-12-24T10:50:02.664Z,7.25
2018-12-24T10:52:50.707Z,7.14
2018-12-24T10:55:38.715Z,7.24
2018-12-24T10:58:07.432Z,7.72
2018-12-24T11:00:36.130Z,7.99
2018-12-24T11:03:04.833Z,7.79
2018-12-24T11:09:06.241Z,7.61
2018-12-24T11:11:36.177Z,7.76
2018-12-24T11:14:05.025Z,7.91
2018-12-24T11:16:45.702Z,7.73
2018-12-24T11:19:33.464Z,7.73
2018-12-24T11:22:02.211Z,7.31
2018-12-24T11:24:30.915Z,7.45
2018-12-24T11:26:59.616Z,7.50
2018-12-24T11:29:28.347Z,7.41
2018-12-24T11:32:16.236Z,7.16
2018-12-24T11:34:44.946Z,7.06
2018-12-24T11:37:32.872Z,6.82
2018-12-24T11:42:35.809Z,7.09
2018-12-24T11:50:34.501Z,7.36
2018-12-24T11:55:58.611Z,7.26
2018-12-24T11:58:27.594Z,6.83
2018-12-24T12:01:15.924Z,6.89
2018-12-24T12:03:44.625Z,6.88
2018-12-24T12:06:19.641Z,6.83
2018-12-24T12:11:38.775Z,6.52
2018-12-24T12:14:26.680Z,6.62
2018-12-24T12:16:55.366Z,6.81
2018-12-24T12:24:46.223Z,6.98
2018-12-24T12:27:14.932Z,7.15
2018-12-24T12:29:43.632Z,7.13
2018-12-24T12:32:12.324Z,6.97
2018-12-24T12:37:15.540Z,6.69
2018-12-24T12:39:44.246Z,6.46
2018-12-24T12:42:12.939Z,6.41
2018-12-24T12:44:41.629Z,6.44
2018-12-24T12:47:10.633Z,6.47
2018-12-24T12:49:39.599Z,6.42
2018-12-24T12:52:08.285Z,6.49
2018-12-24T12:54:37.007Z,6.59
2018-12-24T12:57:05.703Z,6.63
2018-12-24T12:59:34.393Z,6.68
2018-12-24T13:04:57.222Z,6.96
2018-12-24T13:07:25.924Z,7.00
2018-12-24T13:09:54.637Z,7.24
2018-12-24T13:12:23.672Z,7.36
2018-12-24T13:15:11.731Z,7.48
2018-12-24T13:17:41.031Z,7.31
2018-12-24T13:20:09.725Z,7.63
2018-12-24T13:25:32.033Z,7.36
2018-12-24T13:28:00.742Z,7.27
2018-12-24T13:30:29.437Z,7.18
2018-12-24T13:32:58.146Z,7.11
2018-12-24T13:43:10.691Z,6.74
2018-12-24T13:45:39.375Z,6.88
2018-12-24T13:50:41.997Z,7.10
2018-12-24T13:53:10.687Z,7.18
2018-12-24T13:55:39.446Z,7.32
2018-12-24T13:58:08.129Z,7.27
2018-12-24T14:00:37.098Z,7.31
2018-12-24T14:03:05.834Z,7.43
2018-12-24T14:05:34.775Z,7.50
2018-12-24T14:08:03.462Z,7.50
2018-12-24T14:13:25.810Z,7.29
2018-12-24T14:15:54.495Z,7.21
2018-12-24T14:18:23.201Z,7.07
2018-12-24T14:20:51.926Z,6.95
2018-12-24T14:23:20.617Z,6.94
2018-12-24T14:25:49.327Z,6.83
2018-12-24T14:28:18.017Z,6.70
2018-12-24T14:30:46.699Z,6.60
2018-12-24T14:35:49.658Z,6.61
2018-12-24T14:38:18.346Z,6.48
2018-12-24T14:40:47.124Z,6.41
2018-12-24T14:43:15.892Z,6.46
2018-12-24T14:45:44.690Z,6.49
2018-12-24T14:48:13.657Z,6.63
2018-12-24T14:50:47.200Z,6.74
2018-12-24T14:53:12.728Z,6.86
2018-12-24T14:55:41.744Z,6.87
2018-12-24T14:58:10.497Z,6.81
2018-12-24T15:00:39.255Z,6.79
2018-12-24T15:03:08.292Z,6.70
2018-12-24T15:05:36.979Z,6.61
2018-12-24T15:08:05.656Z,6.54
2018-12-24T15:10:34.436Z,6.46
2018-12-24T15:13:03.120Z,6.39
2018-12-24T15:15:31.910Z,6.31
2018-12-24T15:18:01.189Z,6.26
2018-12-24T15:20:30.260Z,6.23
2018-12-24T15:22:59.032Z,6.18
2018-12-24T15:25:27.831Z,6.04
2018-12-24T15:27:56.511Z,5.67
2018-12-24T15:30:25.195Z,5.73
2018-12-24T15:32:54.251Z,5.64
2018-12-24T15:35:23.226Z,5.58
2018-12-24T15:37:51.941Z,5.53
2018-12-24T15:40:20.896Z,5.52
2018-12-24T15:42:49.579Z,5.50
2018-12-24T15:45:18.342Z,5.39
2018-12-24T15:47:47.094Z,5.35
2018-12-24T15:50:15.772Z,5.33
2018-12-24T15:52:45.550Z,5.29
2018-12-24T15:55:14.244Z,5.26
2018-12-24T15:57:42.924Z,5.26
2018-12-24T16:00:11.645Z,5.22
2018-12-24T16:02:40.327Z,5.22
2018-12-24T16:05:14.210Z,5.17
2018-12-24T16:07:43.281Z,5.02
2018-12-24T16:10:13.515Z,4.93
2018-12-24T16:12:43.097Z,4.75
2018-12-24T16:15:12.219Z,4.72
2018-12-24T16:17:40.958Z,4.65
2018-12-24T16:20:14.604Z,4.61
2018-12-24T16:22:43.436Z,4.63
2018-12-24T16:25:14.744Z,4.60
2018-12-24T16:27:45.243Z,4.54
2018-12-24T16:30:15.670Z,4.55
2018-12-24T16:32:44.343Z,4.52
2018-12-24T16:35:14.423Z,4.45
2018-12-24T16:37:43.125Z,4.46
2018-12-24T16:40:11.910Z,4.40
2018-12-24T16:42:40.689Z,4.39
2018-12-24T16:45:09.552Z,4.36
2018-12-24T16:47:38.246Z,4.32
2018-12-24T16:50:07.992Z,4.22
2018-12-24T16:52:37.001Z,4.19
2018-12-24T16:55:05.654Z,4.11
2018-12-24T16:57:34.498Z,4.12
2018-12-24T17:00:03.312Z,4.17
2018-12-24T17:02:31.983Z,4.15
2018-12-24T17:05:00.973Z,4.02
2018-12-24T17:07:29.664Z,3.92
2018-12-24T17:09:58.348Z,3.76
2018-12-24T17:12:27.352Z,3.65
2018-12-24T17:14:56.043Z,3.59
2018-12-24T17:17:24.790Z,3.50
2018-12-24T17:19:54.116Z,3.45
2018-12-24T17:22:22.807Z,3.38
2018-12-24T17:24:51.874Z,3.24
2018-12-24T17:27:20.580Z,3.15
2018-12-24T17:29:49.333Z,3.13
2018-12-24T17:32:18.389Z,3.07
2018-12-24T17:34:47.369Z,3.02
2018-12-24T17:37:16.063Z,2.97
2018-12-24T17:39:44.748Z,2.93
2018-12-24T17:42:13.425Z,2.94
2018-12-24T17:44:42.130Z,2.92
2018-12-24T17:47:16.237Z,2.93
2018-12-24T17:49:41.951Z,2.83
2018-12-24T17:52:10.662Z,2.76
2018-12-24T17:54:39.697Z,2.85
2018-12-24T17:57:08.383Z,2.69
2018-12-24T17:59:37.074Z,2.59
2018-12-24T18:02:06.064Z,2.46
2018-12-24T18:04:34.748Z,2.43
2018-12-24T18:07:03.530Z,2.33
2018-12-24T18:09:32.351Z,2.28
2018-12-24T18:12:01.035Z,2.20
2018-12-24T18:14:29.719Z,2.15
2018-12-24T18:16:58.792Z,2.08
2018-12-24T18:19:27.454Z,2.15
2018-12-24T18:21:56.141Z,1.98
2018-12-24T18:24:24.844Z,1.75
2018-12-24T18:26:53.536Z,1.60
2018-12-24T18:29:22.227Z,1.47
2018-12-24T18:31:51.523Z,1.41
2018-12-24T18:34:20.232Z,1.48
2018-12-24T18:36:48.915Z,1.71
2018-12-24T18:39:17.594Z,1.88
2018-12-24T18:41:46.574Z,1.52
2018-12-24T18:44:15.554Z,1.36
2018-12-24T18:46:44.557Z,1.24
2018-12-24T18:49:13.239Z,1.15
2018-12-24T18:51:42.226Z,1.12
2018-12-24T18:54:13.697Z,0.90
2018-12-24T18:56:42.379Z,0.91
2018-12-24T18:59:11.360Z,0.93
2018-12-24T19:01:40.407Z,0.89
2018-12-24T19:04:09.210Z,0.81
2018-12-24T19:06:38.302Z,0.72
2018-12-24T19:09:07.358Z,0.69
2018-12-24T19:11:36.115Z,0.62
2018-12-24T19:14:05.213Z,0.57
2018-12-24T19:16:33.930Z,0.56
2018-12-24T19:19:02.723Z,0.60
2018-12-24T19:21:31.681Z,0.51
2018-12-24T19:24:00.451Z,0.48
2018-12-24T19:26:29.405Z,0.40
2018-12-24T19:28:58.107Z,0.46
2018-12-24T19:31:26.773Z,0.55
2018-12-24T19:33:55.817Z,0.56
2018-12-24T19:36:24.503Z,0.50
2018-12-24T19:38:53.198Z,0.34
2018-12-24T19:41:21.911Z,0.27
2018-12-24T19:43:50.702Z,0.24
2018-12-24T19:46:19.465Z,0.39
2018-12-24T19:48:48.749Z,0.67
2018-12-24T19:51:17.812Z,0.71
2018-12-24T19:53:46.515Z,0.17
2018-12-24T19:56:15.623Z,0.00
2018-12-24T19:58:44.354Z,-0.03
2018-12-24T20:01:13.048Z,-0.13
2018-12-24T20:03:41.770Z,-0.06
2018-12-24T20:06:10.460Z,0.21
2018-12-24T20:08:39.593Z,0.24
2018-12-24T20:11:08.636Z,0.19
2018-12-24T20:13:37.329Z,0.14
2018-12-24T20:16:06.013Z,0.02
2018-12-24T20:18:34.771Z,-0.06
2018-12-24T20:21:03.465Z,-0.33
2018-12-24T20:23:32.166Z,-0.02
2018-12-24T20:26:01.183Z,-0.07
2018-12-24T20:28:30.417Z,-0.13
2018-12-24T20:30:59.185Z,-0.22
2018-12-24T20:33:27.890Z,-0.31
2018-12-24T20:35:57.372Z,-0.37
2018-12-24T20:38:26.453Z,-0.41
2018-12-24T20:40:55.475Z,-0.41
2018-12-24T20:43:24.171Z,-0.48
2018-12-24T20:45:52.867Z,-0.31
2018-12-24T20:48:21.823Z,-0.25
2018-12-24T20:50:50.534Z,-0.23
2018-12-24T20:53:19.204Z,-0.18
2018-12-24T20:55:47.892Z,-0.26
2018-12-24T20:58:16.955Z,-0.54
2018-12-24T21:00:45.645Z,-0.69
2018-12-24T21:03:14.638Z,-0.65
2018-12-24T21:05:43.342Z,-0.62
2018-12-24T21:08:12.240Z,-0.82
2018-12-24T21:10:40.936Z,-0.82
2018-12-24T21:13:10.054Z,-0.76
2018-12-24T21:15:38.751Z,-0.68
2018-12-24T21:18:14.850Z,-0.67
2018-12-24T21:20:37.864Z,-0.53
2018-12-24T21:23:06.556Z,-0.53
2018-12-24T21:25:35.333Z,-0.50
2018-12-24T21:28:04.124Z,-0.42
2018-12-24T21:30:32.824Z,-0.36
2018-12-24T21:33:01.573Z,-0.31
2018-12-24T21:35:30.372Z,-0.27
2018-12-24T21:37:59.071Z,-0.23
2018-12-24T21:40:27.755Z,-0.21
2018-12-24T21:42:57.388Z,-0.22
2018-12-24T21:45:26.268Z,-0.28
2018-12-24T21:47:55.003Z,-0.31
2018-12-24T21:50:23.700Z,-0.36
2018-12-24T21:52:52.636Z,-0.34
2018-12-24T21:55:21.437Z,-0.37
2018-12-24T21:57:50.548Z,-0.35
2018-12-24T22:00:19.417Z,-0.31
2018-12-24T22:02:48.706Z,-0.24
2018-12-24T22:05:18.325Z,-0.22
2018-12-24T22:07:47.020Z,-0.25
2018-12-24T22:10:15.715Z,-0.25
2018-12-24T22:12:44.408Z,-0.26
2018-12-24T22:15:13.169Z,-0.30
2018-12-24T22:17:41.894Z,-0.29
2018-12-24T22:20:10.657Z,-0.36
2018-12-24T22:22:39.417Z,-0.33
2018-12-24T22:25:08.454Z,-0.30
2018-12-24T22:27:37.268Z,-0.32
2018-12-24T22:30:06.258Z,-0.31
2018-12-24T22:32:34.963Z,-0.30
2018-12-24T22:35:03.658Z,-0.30
2018-12-24T22:37:32.396Z,-0.45
2018-12-24T22:40:01.123Z,-0.45
2018-12-24T22:42:29.823Z,-0.43
2018-12-24T22:44:58.513Z,-0.47
2018-12-24T22:47:27.216Z,-0.34
2018-12-24T22:49:55.920Z,-0.23
2018-12-24T22:52:24.612Z,-0.17
2018-12-24T22:54:53.327Z,-0.21
2018-12-24T22:57:22.385Z,-0.25
2018-12-24T22:59:51.184Z,-0.25
2018-12-24T23:02:19.978Z,-0.17
2018-12-24T23:04:48.668Z,-0.27
2018-12-24T23:07:17.416Z,-0.27
2018-12-24T23:09:46.719Z,-0.29
2018-12-24T23:12:15.496Z,-0.40
2018-12-24T23:14:44.184Z,-0.50
2018-12-24T23:17:12.889Z,-0.58
2018-12-24T23:19:41.609Z,-0.48
2018-12-24T23:22:11.129Z,-0.43
2018-12-24T23:24:40.460Z,-0.43
2018-12-24T23:27:09.315Z,-0.18
2018-12-24T23:29:38.009Z,0.19
2018-12-24T23:32:06.790Z,0.18
2018-12-24T23:34:35.406Z,0.14
2018-12-24T23:37:04.098Z,0.16
2018-12-24T23:39:32.781Z,0.33
2018-12-24T23:42:01.467Z,0.60
2018-12-24T23:44:30.543Z,0.70
2018-12-24T23:46:59.300Z,0.67
2018-12-24T23:49:27.991Z,0.66
2018-12-24T23:51:57.023Z,0.71
2018-12-24T23:54:25.713Z,0.85
2018-12-24T23:56:54.410Z,0.92
2018-12-24T23:59:23.367Z,0.90
